Terminal Aerodrome Forecast
Issued by NWS Sioux Falls, SD

Home | Current Version | Previous Version | Graphics & Text | Print | Product List | Glossary Off
Versions: 1 2 3 4 5 6 7 8 9 10 11 12

000
FTUS43 KFSD 202322
TAFHON
TAF
KHON 202322Z 2100/2124 VRB05KT P6SM SCT200
     FM210500 11007KT P6SM SCT200
     FM210800 13008KT P6SM BKN130
     FM211300 14014G22KT P6SM BKN080
     FM211700 17012KT P6SM SCT080
     FM212000 24007KT P6SM SCT200=

USA.gov is the U.S. government's official web portal to all federal, state and local government web resources and services.